createdAt,value
2019-05-23T00:00:12.832Z,0.00
2019-05-23T00:01:12.837Z,0.00
2019-05-23T00:02:12.852Z,0.00
2019-05-23T00:03:12.858Z,0.00
2019-05-23T00:04:12.864Z,0.00
2019-05-23T00:05:12.888Z,0.00
2019-05-23T00:06:12.900Z,0.00
2019-05-23T00:07:12.886Z,0.00
2019-05-23T00:08:12.895Z,0.00
2019-05-23T00:09:12.909Z,0.00
2019-05-23T00:10:12.914Z,0.00
2019-05-23T00:11:12.920Z,0.00
2019-05-23T00:12:12.927Z,0.00
2019-05-23T00:13:12.936Z,0.00
2019-05-23T00:14:12.943Z,0.00
2019-05-23T00:15:13.026Z,0.00
2019-05-23T00:16:12.956Z,0.00
2019-05-23T00:17:12.969Z,0.00
2019-05-23T00:18:12.990Z,0.00
2019-05-23T00:19:12.983Z,0.00
2019-05-23T00:20:12.991Z,0.00
2019-05-23T00:21:13.001Z,0.00
2019-05-23T00:22:13.016Z,0.00
2019-05-23T00:23:13.018Z,0.00
2019-05-23T00:24:13.019Z,0.00
2019-05-23T00:25:13.028Z,0.00
2019-05-23T00:26:13.033Z,0.00
2019-05-23T00:27:13.055Z,0.00
2019-05-23T00:28:13.047Z,0.00
2019-05-23T00:29:13.057Z,0.00
2019-05-23T00:30:13.065Z,0.00
2019-05-23T00:31:13.074Z,0.00
2019-05-23T00:32:13.081Z,0.00
2019-05-23T00:33:13.091Z,0.00
2019-05-23T00:34:13.093Z,0.00
2019-05-23T00:35:13.107Z,0.00
2019-05-23T00:36:13.111Z,0.00
2019-05-23T00:37:13.117Z,0.00
2019-05-23T00:38:13.126Z,0.00
2019-05-23T00:39:13.145Z,0.00
2019-05-23T00:40:13.141Z,0.00
2019-05-23T00:41:13.151Z,0.00
2019-05-23T00:42:13.152Z,0.00
2019-05-23T00:43:13.166Z,0.00
2019-05-23T00:44:13.182Z,0.00
2019-05-23T00:45:13.183Z,0.00
2019-05-23T00:46:13.189Z,0.00
2019-05-23T00:47:13.194Z,0.00
2019-05-23T00:48:13.208Z,0.00
2019-05-23T00:49:13.219Z,0.00
2019-05-23T00:50:13.216Z,0.00
2019-05-23T00:51:13.258Z,0.00
2019-05-23T00:52:13.232Z,0.00
2019-05-23T00:53:13.240Z,0.00
2019-05-23T00:54:13.262Z,0.00
2019-05-23T00:55:13.256Z,0.00
2019-05-23T00:56:13.290Z,0.00
2019-05-23T00:57:13.271Z,0.00
2019-05-23T00:58:13.275Z,0.00
2019-05-23T00:59:26.048Z,0.00
2019-05-23T01:00:13.300Z,0.00
2019-05-23T01:01:13.304Z,0.00
2019-05-23T01:02:13.318Z,0.00
2019-05-23T01:03:13.316Z,0.00
2019-05-23T01:04:13.329Z,0.00
2019-05-23T01:05:13.334Z,0.00
2019-05-23T01:06:13.338Z,0.00
2019-05-23T01:07:13.349Z,0.00
2019-05-23T01:08:13.358Z,0.00
2019-05-23T01:09:13.362Z,0.00
2019-05-23T01:10:13.369Z,0.00
2019-05-23T01:11:13.379Z,0.00
2019-05-23T01:12:13.384Z,0.00
2019-05-23T01:13:13.394Z,0.00
2019-05-23T01:14:13.398Z,0.00
2019-05-23T01:15:13.406Z,0.00
2019-05-23T01:16:13.415Z,0.00
2019-05-23T01:17:13.466Z,0.00
2019-05-23T01:18:13.428Z,0.00
2019-05-23T01:19:13.437Z,0.00
2019-05-23T01:20:13.441Z,0.00
2019-05-23T01:21:13.453Z,0.00
2019-05-23T01:22:13.555Z,0.00
2019-05-23T01:23:13.468Z,0.00
2019-05-23T01:24:13.475Z,0.00
2019-05-23T01:25:13.485Z,0.00
2019-05-23T01:26:13.491Z,0.00
2019-05-23T01:27:13.488Z,0.00
2019-05-23T01:28:13.504Z,0.00
2019-05-23T01:29:13.516Z,0.00
2019-05-23T01:30:13.518Z,0.00
2019-05-23T01:31:13.527Z,0.00
2019-05-23T01:32:13.537Z,0.00
2019-05-23T01:33:13.538Z,0.00
2019-05-23T01:34:13.553Z,0.00
2019-05-23T01:35:13.559Z,0.00
2019-05-23T01:36:13.568Z,0.00
2019-05-23T01:37:13.573Z,0.00
2019-05-23T01:38:13.578Z,0.00
2019-05-23T01:39:13.590Z,0.00
2019-05-23T01:40:13.600Z,0.00
2019-05-23T01:41:13.602Z,0.00
2019-05-23T01:42:13.611Z,0.00
2019-05-23T01:43:13.612Z,0.00
2019-05-23T01:44:13.621Z,0.00
2019-05-23T01:45:13.630Z,0.00
2019-05-23T01:46:13.637Z,0.00
2019-05-23T01:47:13.647Z,0.00
2019-05-23T01:48:13.653Z,0.00
2019-05-23T01:49:13.656Z,0.00
2019-05-23T01:50:13.666Z,0.00
2019-05-23T01:51:13.676Z,0.00
2019-05-23T01:52:13.687Z,0.00
2019-05-23T01:53:13.682Z,0.00
2019-05-23T01:54:13.699Z,0.00
2019-05-23T01:55:13.711Z,0.00
2019-05-23T01:56:13.715Z,0.00
2019-05-23T01:57:13.724Z,0.00
2019-05-23T01:58:13.723Z,0.00
2019-05-23T01:59:13.735Z,0.00
2019-05-23T02:00:13.753Z,0.00
2019-05-23T02:01:13.748Z,0.00
2019-05-23T02:02:13.758Z,0.00
2019-05-23T02:03:13.767Z,0.00
2019-05-23T02:04:13.779Z,0.00
2019-05-23T02:05:13.786Z,0.00
2019-05-23T02:06:13.784Z,0.00
2019-05-23T02:07:13.796Z,0.00
2019-05-23T02:08:13.837Z,0.00
2019-05-23T02:09:13.806Z,0.00
2019-05-23T02:10:13.995Z,0.00
2019-05-23T02:11:13.818Z,0.00
2019-05-23T02:12:13.833Z,0.00
2019-05-23T02:13:13.839Z,0.00
2019-05-23T02:14:13.844Z,0.00
2019-05-23T02:15:13.852Z,0.00
2019-05-23T02:16:13.865Z,0.00
2019-05-23T02:17:13.865Z,0.00
2019-05-23T02:18:13.891Z,0.00
2019-05-23T02:19:13.986Z,0.00
2019-05-23T02:20:13.886Z,0.00
2019-05-23T02:21:13.897Z,0.00
2019-05-23T02:22:13.900Z,0.00
2019-05-23T02:23:13.908Z,0.00
2019-05-23T02:24:13.929Z,0.00
2019-05-23T02:25:13.989Z,0.00
2019-05-23T02:26:13.939Z,0.00
2019-05-23T02:27:13.939Z,0.00
2019-05-23T02:28:13.949Z,0.00
2019-05-23T02:29:13.955Z,0.00
2019-05-23T02:30:32.289Z,0.00
2019-05-23T02:31:13.967Z,0.00
2019-05-23T02:32:13.975Z,0.00
2019-05-23T02:33:13.994Z,0.00
2019-05-23T02:34:13.993Z,0.00
2019-05-23T02:35:13.998Z,0.00
2019-05-23T02:36:14.011Z,0.00
2019-05-23T02:37:14.010Z,0.00
2019-05-23T02:38:14.022Z,0.00
2019-05-23T02:39:14.027Z,0.00
2019-05-23T02:40:14.036Z,0.00
2019-05-23T02:41:14.061Z,0.00
2019-05-23T02:42:14.049Z,0.00
2019-05-23T02:43:14.059Z,0.00
2019-05-23T02:44:14.062Z,0.00
2019-05-23T02:45:14.069Z,0.00
2019-05-23T02:46:14.081Z,0.00
2019-05-23T02:47:14.082Z,0.00
2019-05-23T02:48:14.091Z,0.00
2019-05-23T02:49:14.096Z,0.00
2019-05-23T02:50:14.105Z,0.00
2019-05-23T02:51:14.115Z,0.00
2019-05-23T02:52:14.116Z,0.00
2019-05-23T02:53:14.131Z,0.00
2019-05-23T02:54:14.133Z,0.00
2019-05-23T02:55:14.143Z,0.00
2019-05-23T02:56:14.149Z,0.00
2019-05-23T02:57:14.158Z,0.00
2019-05-23T02:58:14.160Z,0.00
2019-05-23T02:59:14.173Z,0.00
2019-05-23T03:00:14.180Z,0.00
2019-05-23T03:01:14.185Z,4.00
2019-05-23T03:02:14.196Z,4.00
2019-05-23T03:03:14.198Z,0.00
2019-05-23T03:04:14.204Z,4.00
2019-05-23T03:05:14.213Z,4.00
2019-05-23T03:06:14.219Z,4.00
2019-05-23T03:07:14.225Z,4.00
2019-05-23T03:08:14.233Z,8.00
2019-05-23T03:09:14.238Z,4.00
2019-05-23T03:10:14.244Z,4.00
2019-05-23T03:11:14.259Z,8.00
2019-05-23T03:12:14.263Z,8.00
2019-05-23T03:13:14.274Z,12.00
2019-05-23T03:14:14.279Z,12.00
2019-05-23T03:15:14.289Z,16.00
2019-05-23T03:16:14.288Z,16.00
2019-05-23T03:17:14.301Z,20.00
2019-05-23T03:18:14.306Z,24.00
2019-05-23T03:19:14.314Z,24.00
2019-05-23T03:20:14.321Z,28.00
2019-05-23T03:21:14.341Z,32.00
2019-05-23T03:22:14.338Z,40.00
2019-05-23T03:23:14.345Z,44.00
2019-05-23T03:24:14.354Z,52.00
2019-05-23T03:25:14.357Z,56.00
2019-05-23T03:26:14.364Z,60.00
2019-05-23T03:27:14.377Z,68.00
2019-05-23T03:28:14.375Z,76.00
2019-05-23T03:29:14.388Z,84.00
2019-05-23T03:30:14.416Z,92.00
2019-05-23T03:31:29.453Z,104.00
2019-05-23T03:33:18.432Z,124.00
2019-05-23T03:34:18.451Z,136.00
2019-05-23T03:36:22.429Z,160.00
2019-05-23T03:37:22.425Z,172.00
2019-05-23T03:39:26.446Z,204.00
2019-05-23T03:40:26.446Z,216.00
2019-05-23T03:42:19.866Z,244.00
2019-05-23T03:43:19.860Z,260.00
2019-05-23T03:45:23.860Z,288.00
2019-05-23T03:46:23.870Z,308.00
2019-05-23T03:48:27.879Z,340.00
2019-05-23T03:49:27.863Z,356.00
2019-05-23T03:51:32.362Z,392.00
2019-05-23T03:52:32.359Z,412.00
2019-05-23T03:54:36.829Z,448.00
2019-05-23T03:55:36.841Z,464.00
2019-05-23T03:57:41.324Z,500.00
2019-05-23T03:58:41.319Z,524.00
2019-05-23T04:00:45.804Z,564.00
2019-05-23T04:01:48.231Z,584.00
2019-05-23T04:03:50.298Z,620.00
2019-05-23T04:04:50.298Z,640.00
2019-05-23T04:06:54.783Z,676.00
2019-05-23T04:07:54.783Z,696.00
2019-05-23T04:09:58.780Z,736.00
2019-05-23T04:10:58.787Z,752.00
2019-05-23T04:13:02.794Z,800.00
2019-05-23T04:14:02.790Z,808.00
2019-05-23T04:16:06.793Z,844.00
2019-05-23T04:17:06.798Z,864.00
2019-05-23T04:19:11.287Z,900.00
2019-05-23T04:20:11.281Z,924.00
2019-05-23T04:22:04.313Z,968.00
2019-05-23T04:23:04.225Z,992.00
2019-05-23T04:25:08.709Z,1064.00
2019-05-23T04:26:08.707Z,1076.00
2019-05-23T04:28:12.718Z,1112.00
2019-05-23T04:29:12.717Z,1124.00
2019-05-23T04:30:12.733Z,1136.00
2019-05-23T04:31:13.541Z,1164.00
2019-05-23T04:32:12.735Z,1176.00
2019-05-23T04:33:14.433Z,1200.00
2019-05-23T04:34:20.436Z,1264.00
2019-05-23T04:36:17.265Z,1296.00
2019-05-23T04:37:17.286Z,1320.00
2019-05-23T04:39:21.768Z,1272.00
2019-05-23T04:40:21.760Z,1292.00
2019-05-23T04:41:21.773Z,1296.00
2019-05-23T04:42:21.777Z,1316.00
2019-05-23T04:43:21.784Z,1384.00
2019-05-23T04:44:21.806Z,1476.00
2019-05-23T04:45:21.809Z,1440.00
2019-05-23T04:46:21.807Z,1356.00
2019-05-23T04:47:21.811Z,1344.00
2019-05-23T04:48:21.823Z,1376.00
2019-05-23T04:49:21.844Z,1448.00
2019-05-23T04:50:21.848Z,1524.00
2019-05-23T04:51:21.849Z,1596.00
2019-05-23T04:52:21.855Z,1640.00
2019-05-23T04:53:21.863Z,1632.00
2019-05-23T04:54:21.865Z,1576.00
2019-05-23T04:55:21.876Z,1536.00
2019-05-23T04:56:21.880Z,1508.00
2019-05-23T04:57:21.889Z,1488.00
2019-05-23T04:58:21.892Z,1488.00
2019-05-23T04:59:21.906Z,1500.00
2019-05-23T05:00:21.906Z,1524.00
2019-05-23T05:01:21.920Z,1612.00
2019-05-23T05:02:26.090Z,1752.00
2019-05-23T05:03:21.928Z,1892.00
2019-05-23T05:04:21.935Z,1980.00
2019-05-23T05:05:21.950Z,2040.00
2019-05-23T05:06:21.955Z,2080.00
2019-05-23T05:07:21.960Z,2004.00
2019-05-23T05:08:21.964Z,1844.00
2019-05-23T05:09:21.976Z,1744.00
2019-05-23T05:10:21.980Z,1700.00
2019-05-23T05:11:21.989Z,1700.00
2019-05-23T05:12:21.997Z,1772.00
2019-05-23T05:13:22.001Z,1868.00
2019-05-23T05:14:22.037Z,1904.00
2019-05-23T05:15:22.036Z,1932.00
2019-05-23T05:16:22.023Z,1844.00
2019-05-23T05:17:22.035Z,1752.00
2019-05-23T05:18:22.046Z,1664.00
2019-05-23T05:19:22.045Z,1588.00
2019-05-23T05:20:22.117Z,1572.00
2019-05-23T05:21:22.060Z,1580.00
2019-05-23T05:22:22.065Z,1604.00
2019-05-23T05:23:22.077Z,1564.00
2019-05-23T05:24:22.085Z,1576.00
2019-05-23T05:25:22.091Z,1596.00
2019-05-23T05:26:22.106Z,1608.00
2019-05-23T05:27:22.107Z,1608.00
2019-05-23T05:28:22.113Z,1628.00
2019-05-23T05:29:22.123Z,1652.00
2019-05-23T05:30:22.125Z,1668.00
2019-05-23T05:31:22.136Z,1700.00
2019-05-23T05:32:22.138Z,1688.00
2019-05-23T05:33:22.147Z,1724.00
2019-05-23T05:34:22.155Z,1680.00
2019-05-23T05:35:22.165Z,1684.00
2019-05-23T05:36:22.181Z,1716.00
2019-05-23T05:37:22.177Z,1740.00
2019-05-23T05:38:22.188Z,1752.00
2019-05-23T05:39:22.192Z,1776.00
2019-05-23T05:40:22.202Z,1804.00
2019-05-23T05:41:22.220Z,1824.00
2019-05-23T05:42:22.218Z,1844.00
2019-05-23T05:43:22.227Z,1860.00
2019-05-23T05:44:22.482Z,1884.00
2019-05-23T05:45:22.238Z,1928.00
2019-05-23T05:46:22.241Z,1960.00
2019-05-23T05:47:22.248Z,1980.00
2019-05-23T05:48:22.261Z,1988.00
2019-05-23T05:49:22.268Z,1972.00
2019-05-23T05:50:22.278Z,1944.00
2019-05-23T05:51:22.285Z,1920.00
2019-05-23T05:52:22.289Z,1904.00
2019-05-23T05:53:22.297Z,1876.00
2019-05-23T05:54:22.304Z,1868.00
2019-05-23T05:55:22.319Z,1864.00
2019-05-23T05:56:22.331Z,1856.00
2019-05-23T05:57:22.327Z,1876.00
2019-05-23T05:58:22.342Z,1872.00
2019-05-23T05:59:22.338Z,1924.00
2019-05-23T06:00:22.349Z,1928.00
2019-05-23T06:01:33.518Z,1888.00
2019-05-23T06:02:22.364Z,1892.00
2019-05-23T06:03:22.370Z,1900.00
2019-05-23T06:04:22.376Z,1896.00
2019-05-23T06:05:22.389Z,1888.00
2019-05-23T06:06:22.394Z,1876.00
2019-05-23T06:07:22.400Z,1868.00
2019-05-23T06:08:22.457Z,1864.00
2019-05-23T06:09:22.416Z,1856.00
2019-05-23T06:10:22.429Z,1848.00
2019-05-23T06:11:22.431Z,1860.00
2019-05-23T06:12:22.444Z,1856.00
2019-05-23T06:13:22.444Z,1860.00
2019-05-23T06:14:22.450Z,1864.00
2019-05-23T06:15:22.457Z,1868.00
2019-05-23T06:16:22.469Z,1872.00
2019-05-23T06:17:22.474Z,1868.00
2019-05-23T06:18:22.487Z,1868.00
2019-05-23T06:19:22.497Z,1872.00
2019-05-23T06:20:22.499Z,1884.00
2019-05-23T06:21:22.506Z,1884.00
2019-05-23T06:22:22.554Z,1880.00
2019-05-23T06:23:22.525Z,1884.00
2019-05-23T06:24:39.284Z,1884.00
2019-05-23T06:25:22.537Z,1888.00
2019-05-23T06:26:22.554Z,1900.00
2019-05-23T06:27:22.552Z,1904.00
2019-05-23T06:28:22.569Z,1904.00
2019-05-23T06:29:22.903Z,1908.00
2019-05-23T06:30:22.576Z,1900.00
2019-05-23T06:31:22.584Z,1892.00
2019-05-23T06:32:22.592Z,1900.00
2019-05-23T06:33:24.352Z,1908.00
2019-05-23T06:34:22.608Z,1920.00
2019-05-23T06:35:22.613Z,1932.00
2019-05-23T06:36:22.625Z,1952.00
2019-05-23T06:37:22.630Z,1976.00
2019-05-23T06:38:22.640Z,1992.00
2019-05-23T06:39:22.645Z,2004.00
2019-05-23T06:40:22.661Z,1996.00
2019-05-23T06:41:22.662Z,1988.00
2019-05-23T06:42:22.807Z,1980.00
2019-05-23T06:43:22.691Z,1976.00
2019-05-23T06:44:22.698Z,1964.00
2019-05-23T06:45:22.716Z,1968.00
2019-05-23T06:46:22.711Z,1968.00
2019-05-23T06:47:22.712Z,1984.00
2019-05-23T06:48:22.715Z,1996.00
2019-05-23T06:49:22.728Z,1996.00
2019-05-23T06:50:22.740Z,2012.00
2019-05-23T06:51:22.740Z,2020.00
2019-05-23T06:52:22.744Z,2024.00
2019-05-23T06:53:22.781Z,2036.00
2019-05-23T06:54:22.761Z,2048.00
2019-05-23T06:55:22.767Z,2052.00
2019-05-23T06:56:22.777Z,2084.00
2019-05-23T06:57:22.821Z,2112.00
2019-05-23T06:58:23.316Z,2116.00
2019-05-23T06:59:22.798Z,2116.00
2019-05-23T07:00:22.804Z,2132.00
2019-05-23T07:01:22.816Z,2144.00
2019-05-23T07:02:22.826Z,2136.00
2019-05-23T07:03:40.050Z,2140.00
2019-05-23T07:04:22.840Z,2172.00
2019-05-23T07:05:22.854Z,2220.00
2019-05-23T07:06:22.857Z,2344.00
2019-05-23T07:07:22.922Z,2444.00
2019-05-23T07:08:25.291Z,2452.00
2019-05-23T07:09:22.881Z,2500.00
2019-05-23T07:10:22.899Z,2568.00
2019-05-23T07:11:22.894Z,2632.00
2019-05-23T07:12:22.903Z,2720.00
2019-05-23T07:13:22.912Z,2888.00
2019-05-23T07:14:22.921Z,3064.00
2019-05-23T07:15:22.929Z,3104.00
2019-05-23T07:16:22.939Z,3012.00
2019-05-23T07:17:22.941Z,2936.00
2019-05-23T07:18:22.949Z,2908.00
2019-05-23T07:19:22.955Z,3076.00
2019-05-23T07:20:22.976Z,3316.00
2019-05-23T07:21:22.972Z,3524.00
2019-05-23T07:22:22.983Z,3540.00
2019-05-23T07:23:22.996Z,3472.00
2019-05-23T07:24:22.999Z,3488.00
2019-05-23T07:25:23.009Z,3504.00
2019-05-23T07:26:23.021Z,3548.00
2019-05-23T07:27:23.024Z,3524.00
2019-05-23T07:28:23.046Z,3464.00
2019-05-23T07:29:23.064Z,3424.00
2019-05-23T07:30:23.084Z,3312.00
2019-05-23T07:31:23.066Z,3160.00
2019-05-23T07:32:23.064Z,2980.00
2019-05-23T07:33:23.076Z,2836.00
2019-05-23T07:34:23.086Z,2744.00
2019-05-23T07:35:23.094Z,2712.00
2019-05-23T07:36:23.102Z,2696.00
2019-05-23T07:37:23.108Z,2700.00
2019-05-23T07:38:23.117Z,2740.00
2019-05-23T07:39:23.125Z,2752.00
2019-05-23T07:40:23.152Z,2744.00
2019-05-23T07:41:23.144Z,2752.00
2019-05-23T07:42:23.153Z,2760.00
2019-05-23T07:43:23.166Z,2744.00
2019-05-23T07:44:23.175Z,2772.00
2019-05-23T07:45:23.174Z,2828.00
2019-05-23T07:46:23.187Z,2892.00
2019-05-23T07:47:23.197Z,2912.00
2019-05-23T07:48:23.204Z,2940.00
2019-05-23T07:49:23.215Z,2992.00
2019-05-23T07:50:23.216Z,2912.00
2019-05-23T07:51:23.226Z,2868.00
2019-05-23T07:52:23.236Z,2880.00
2019-05-23T07:53:23.244Z,2876.00
2019-05-23T07:54:23.256Z,2928.00
2019-05-23T07:55:23.261Z,2984.00
2019-05-23T07:56:23.272Z,3056.00
2019-05-23T07:57:23.274Z,3100.00
2019-05-23T07:58:23.292Z,3376.00
2019-05-23T07:59:23.293Z,3772.00
2019-05-23T08:00:23.301Z,4212.00
2019-05-23T08:01:23.317Z,3960.00
2019-05-23T08:02:25.879Z,4232.00
2019-05-23T08:03:23.325Z,4796.00
2019-05-23T08:04:23.343Z,5172.00
2019-05-23T08:05:23.345Z,5276.00
2019-05-23T08:06:23.351Z,5328.00
2019-05-23T08:07:23.399Z,4940.00
2019-05-23T08:08:23.376Z,4196.00
2019-05-23T08:09:23.376Z,3768.00
2019-05-23T08:10:33.001Z,3676.00
2019-05-23T08:11:23.398Z,3676.00
2019-05-23T08:12:23.416Z,3828.00
2019-05-23T08:13:23.410Z,4216.00
2019-05-23T08:14:23.424Z,4392.00
2019-05-23T08:15:23.434Z,4192.00
2019-05-23T08:16:23.442Z,4136.00
2019-05-23T08:17:23.451Z,4300.00
2019-05-23T08:18:23.456Z,4048.00
2019-05-23T08:19:23.471Z,3936.00
2019-05-23T08:20:23.479Z,4200.00
2019-05-23T08:21:23.491Z,4468.00
2019-05-23T08:22:23.502Z,5004.00
2019-05-23T08:23:23.498Z,5700.00
2019-05-23T08:24:23.518Z,5824.00
2019-05-23T08:25:23.521Z,5548.00
2019-05-23T08:26:23.542Z,5488.00
2019-05-23T08:27:23.572Z,5664.00
2019-05-23T08:28:23.548Z,6212.00
2019-05-23T08:29:26.623Z,6704.00
2019-05-23T08:30:23.568Z,6972.00
2019-05-23T08:31:23.577Z,7472.00
2019-05-23T08:32:23.587Z,8004.00
2019-05-23T08:33:23.603Z,8236.00
2019-05-23T08:34:40.015Z,8404.00
2019-05-23T08:35:23.610Z,8208.00
2019-05-23T08:36:23.620Z,7172.00
2019-05-23T08:37:23.633Z,6464.00
2019-05-23T08:38:23.636Z,5932.00
2019-05-23T08:39:23.645Z,5592.00
2019-05-23T08:40:23.676Z,5356.00
2019-05-23T08:41:23.665Z,5112.00
2019-05-23T08:42:23.678Z,5296.00
2019-05-23T08:43:23.676Z,5360.00
2019-05-23T08:44:23.695Z,5696.00
2019-05-23T08:45:23.709Z,6180.00
2019-05-23T08:46:23.716Z,5904.00
2019-05-23T08:47:23.727Z,5056.00
2019-05-23T08:48:23.731Z,4344.00
2019-05-23T08:49:23.738Z,4052.00
2019-05-23T08:50:24.365Z,4232.00
2019-05-23T08:51:23.757Z,4504.00
2019-05-23T08:52:23.767Z,4652.00
2019-05-23T08:53:23.779Z,5048.00
2019-05-23T08:54:23.788Z,5172.00
2019-05-23T08:55:23.798Z,5636.00
2019-05-23T08:56:23.813Z,6024.00
2019-05-23T08:57:23.815Z,6180.00
2019-05-23T08:58:23.830Z,6016.00
2019-05-23T08:59:23.836Z,5456.00
2019-05-23T09:00:23.858Z,4828.00
2019-05-23T09:01:23.850Z,4340.00
2019-05-23T09:02:23.860Z,4120.00
2019-05-23T09:03:23.867Z,4012.00
2019-05-23T09:04:23.875Z,4024.00
2019-05-23T09:05:23.893Z,3980.00
2019-05-23T09:06:23.913Z,3872.00
2019-05-23T09:07:23.908Z,3908.00
2019-05-23T09:08:23.918Z,4012.00
2019-05-23T09:09:29.598Z,3988.00
2019-05-23T09:10:23.940Z,3992.00
2019-05-23T09:11:23.952Z,4184.00
2019-05-23T09:12:23.966Z,4404.00
2019-05-23T09:13:23.969Z,4612.00
2019-05-23T09:14:23.978Z,4592.00
2019-05-23T09:15:23.987Z,4484.00
2019-05-23T09:16:23.989Z,4004.00
2019-05-23T09:17:24.004Z,3844.00
2019-05-23T09:18:24.018Z,3800.00
2019-05-23T09:19:24.019Z,4012.00
2019-05-23T09:20:24.030Z,4172.00
2019-05-23T09:21:24.041Z,4184.00
2019-05-23T09:22:24.052Z,4128.00
2019-05-23T09:23:24.124Z,4104.00
2019-05-23T09:24:24.073Z,3920.00
2019-05-23T09:25:24.078Z,3848.00
2019-05-23T09:26:24.086Z,3612.00
2019-05-23T09:27:24.094Z,3616.00
2019-05-23T09:28:24.114Z,3768.00
2019-05-23T09:29:24.114Z,3812.00
2019-05-23T09:30:24.128Z,3832.00
2019-05-23T09:31:24.138Z,3972.00
2019-05-23T09:32:24.145Z,4180.00
2019-05-23T09:33:24.154Z,4612.00
2019-05-23T09:34:24.160Z,4772.00
2019-05-23T09:35:24.170Z,5164.00
2019-05-23T09:36:24.179Z,5160.00
2019-05-23T09:37:24.330Z,5076.00
2019-05-23T09:38:24.202Z,4624.00
2019-05-23T09:39:24.204Z,4228.00
2019-05-23T09:40:24.222Z,4128.00
2019-05-23T09:41:24.230Z,4336.00
2019-05-23T09:42:24.237Z,4596.00
2019-05-23T09:43:24.248Z,4980.00
2019-05-23T09:44:24.257Z,5268.00
2019-05-23T09:45:24.273Z,5672.00
2019-05-23T09:46:24.308Z,6144.00
2019-05-23T09:47:24.280Z,6444.00
2019-05-23T09:48:24.296Z,5960.00
2019-05-23T09:49:24.316Z,5580.00
2019-05-23T09:50:24.313Z,5476.00
2019-05-23T09:51:24.323Z,5172.00
2019-05-23T09:52:24.331Z,4900.00
2019-05-23T09:53:24.341Z,4872.00
2019-05-23T09:54:24.346Z,4920.00
2019-05-23T09:55:24.358Z,4944.00
2019-05-23T09:56:24.366Z,4940.00
2019-05-23T09:57:24.379Z,4976.00
2019-05-23T09:58:24.385Z,5012.00
2019-05-23T09:59:24.394Z,5028.00
2019-05-23T10:00:24.408Z,5084.00
2019-05-23T10:01:24.412Z,5136.00
2019-05-23T10:02:24.425Z,5248.00
2019-05-23T10:03:24.435Z,5440.00
2019-05-23T10:04:24.442Z,5520.00
2019-05-23T10:05:40.673Z,5464.00
2019-05-23T10:06:24.462Z,5408.00
2019-05-23T10:07:24.474Z,5460.00
2019-05-23T10:08:24.483Z,5612.00
2019-05-23T10:09:24.489Z,5812.00
2019-05-23T10:10:24.516Z,5896.00
2019-05-23T10:11:24.509Z,5916.00
2019-05-23T10:12:24.516Z,5824.00
2019-05-23T10:13:38.603Z,5980.00
2019-05-23T10:14:24.536Z,6304.00
2019-05-23T10:15:24.542Z,6496.00
2019-05-23T10:16:24.558Z,6604.00
2019-05-23T10:17:24.797Z,6576.00
2019-05-23T10:18:24.576Z,6580.00
2019-05-23T10:19:24.594Z,6476.00
2019-05-23T10:20:24.593Z,6364.00
2019-05-23T10:21:24.603Z,6296.00
2019-05-23T10:22:24.613Z,6216.00
2019-05-23T10:23:24.622Z,6068.00
2019-05-23T10:24:24.631Z,6088.00
2019-05-23T10:25:24.645Z,6192.00
2019-05-23T10:26:24.655Z,6208.00
2019-05-23T10:27:24.661Z,6036.00
2019-05-23T10:28:24.671Z,6068.00
2019-05-23T10:29:24.681Z,6200.00
2019-05-23T10:30:24.696Z,6252.00
2019-05-23T10:31:24.702Z,6196.00
2019-05-23T10:32:24.713Z,6156.00
2019-05-23T10:33:24.717Z,6232.00
2019-05-23T10:34:24.736Z,6236.00
2019-05-23T10:35:24.738Z,6276.00
2019-05-23T10:36:24.750Z,6292.00
2019-05-23T10:37:24.760Z,6332.00
2019-05-23T10:38:24.768Z,6468.00
2019-05-23T10:39:24.779Z,6612.00
2019-05-23T10:40:24.792Z,6688.00
2019-05-23T10:41:24.800Z,6740.00
2019-05-23T10:42:24.814Z,6852.00
2019-05-23T10:43:24.820Z,6828.00
2019-05-23T10:44:24.829Z,6764.00
2019-05-23T10:45:24.841Z,6892.00
2019-05-23T10:46:24.854Z,7056.00
2019-05-23T10:47:24.865Z,7000.00
2019-05-23T10:48:24.884Z,6756.00
2019-05-23T10:49:24.881Z,6612.00
2019-05-23T10:50:24.895Z,6540.00
2019-05-23T10:51:24.918Z,6464.00
2019-05-23T10:52:24.917Z,6260.00
2019-05-23T10:53:24.917Z,6364.00
2019-05-23T10:54:24.932Z,6500.00
2019-05-23T10:55:24.942Z,6596.00
2019-05-23T10:56:24.994Z,6640.00
2019-05-23T10:57:24.960Z,6632.00
2019-05-23T10:58:25.037Z,6700.00
2019-05-23T10:59:24.985Z,6768.00
2019-05-23T11:00:24.998Z,6920.00
2019-05-23T11:01:25.005Z,7188.00
2019-05-23T11:02:27.166Z,7400.00
2019-05-23T11:03:25.026Z,7552.00
2019-05-23T11:04:25.033Z,7692.00
2019-05-23T11:05:25.051Z,7844.00
2019-05-23T11:06:25.058Z,7952.00
2019-05-23T11:07:25.067Z,8092.00
2019-05-23T11:08:29.076Z,8200.00
2019-05-23T11:09:37.471Z,8384.00
2019-05-23T11:10:25.103Z,8440.00
2019-05-23T11:11:25.110Z,8904.00
2019-05-23T11:12:25.121Z,9236.00
2019-05-23T11:13:25.130Z,10700.00
2019-05-23T11:14:25.143Z,11076.00
2019-05-23T11:15:25.149Z,11744.00
2019-05-23T11:16:25.161Z,11608.00
2019-05-23T11:17:25.168Z,11476.00
2019-05-23T11:18:25.188Z,12132.00
2019-05-23T11:19:25.196Z,12760.00
2019-05-23T11:20:25.212Z,14148.00
2019-05-23T11:21:25.228Z,36320.00
2019-05-23T11:22:25.229Z,85056.00
2019-05-23T11:23:25.237Z,116320.00
2019-05-23T11:24:25.252Z,116224.00
2019-05-23T11:25:25.338Z,116416.00
2019-05-23T11:26:25.278Z,114016.00
2019-05-23T11:27:25.300Z,115680.00
2019-05-23T11:28:25.303Z,111840.00
2019-05-23T11:29:27.408Z,116704.00
2019-05-23T11:30:25.334Z,116416.00
2019-05-23T11:31:25.349Z,120896.00
2019-05-23T11:32:25.368Z,112000.00
2019-05-23T11:33:25.380Z,115904.00
2019-05-23T11:34:25.411Z,117920.00
2019-05-23T11:35:25.409Z,119648.00
2019-05-23T11:36:35.574Z,114560.00
2019-05-23T11:37:25.462Z,111616.00
2019-05-23T11:38:25.461Z,116416.00
2019-05-23T11:39:25.645Z,118176.00
2019-05-23T11:40:25.495Z,116864.00
2019-05-23T11:41:25.544Z,116000.00
2019-05-23T11:42:25.539Z,114176.00
2019-05-23T11:43:25.556Z,111776.00
2019-05-23T11:44:25.581Z,110112.00
2019-05-23T11:45:25.590Z,116448.00
2019-05-23T11:46:25.613Z,122048.00
2019-05-23T11:47:25.635Z,126400.00
2019-05-23T11:48:25.650Z,121504.00
2019-05-23T11:49:25.666Z,116800.00
2019-05-23T11:50:25.692Z,116096.00
2019-05-23T11:51:26.196Z,117952.00
2019-05-23T11:52:25.730Z,119840.00
2019-05-23T11:53:25.748Z,114176.00
2019-05-23T11:54:25.772Z,112288.00
2019-05-23T11:55:25.801Z,113120.00
2019-05-23T11:56:25.821Z,121632.00
2019-05-23T11:57:25.837Z,121888.00
2019-05-23T11:58:25.863Z,123424.00
2019-05-23T11:59:25.894Z,124736.00
2019-05-23T12:00:25.904Z,121376.00
2019-05-23T12:01:25.917Z,121760.00
2019-05-23T12:02:25.941Z,120256.00
2019-05-23T12:03:25.966Z,118560.00
2019-05-23T12:04:25.984Z,120160.00
2019-05-23T12:05:26.234Z,116928.00
2019-05-23T12:06:26.664Z,110080.00
2019-05-23T12:07:26.050Z,110784.00
2019-05-23T12:08:26.081Z,111392.00
2019-05-23T12:09:26.088Z,119904.00
2019-05-23T12:10:26.131Z,119840.00
2019-05-23T12:11:26.134Z,119872.00
2019-05-23T12:12:26.161Z,119936.00
2019-05-23T12:13:26.182Z,118240.00
2019-05-23T12:14:26.207Z,112992.00
2019-05-23T12:15:26.223Z,110944.00
2019-05-23T12:16:26.259Z,112512.00
2019-05-23T12:17:26.271Z,118432.00
2019-05-23T12:18:26.292Z,121760.00
2019-05-23T12:19:26.316Z,119136.00
2019-05-23T12:20:26.329Z,120320.00
2019-05-23T12:21:26.363Z,121312.00
2019-05-23T12:22:26.388Z,120576.00
2019-05-23T12:23:26.401Z,120192.00
2019-05-23T12:24:26.428Z,127104.00
2019-05-23T12:25:26.461Z,124224.00
2019-05-23T12:26:26.474Z,116864.00
2019-05-23T12:27:26.501Z,114592.00
2019-05-23T12:28:26.521Z,116032.00
2019-05-23T12:29:26.538Z,112480.00
2019-05-23T12:30:26.564Z,104864.00
2019-05-23T12:31:26.587Z,101888.00
2019-05-23T12:32:26.609Z,103584.00
2019-05-23T12:33:26.633Z,106240.00
2019-05-23T12:34:26.759Z,113504.00
2019-05-23T12:35:26.674Z,117344.00
2019-05-23T12:36:26.703Z,115072.00
2019-05-23T12:37:26.724Z,115296.00
2019-05-23T12:38:26.748Z,114752.00
2019-05-23T12:39:26.772Z,116512.00
2019-05-23T12:40:26.793Z,113152.00
2019-05-23T12:41:26.819Z,101376.00
2019-05-23T12:42:26.837Z,99968.00